createdAt,value
2017-10-09T00:00:02.263Z,9.54
2017-10-09T00:00:06.224Z,9.55
2017-10-09T00:00:10.433Z,9.55
2017-10-09T00:00:14.764Z,9.55
2017-10-09T00:00:18.853Z,9.56
2017-10-09T00:00:22.940Z,9.55
2017-10-09T00:00:27.155Z,9.55
2017-10-09T00:00:31.243Z,9.55
2017-10-09T00:00:35.326Z,9.55
2017-10-09T00:00:39.537Z,9.55
2017-10-09T00:00:43.873Z,9.55
2017-10-09T00:00:48.088Z,9.55
2017-10-09T00:00:52.170Z,9.55
2017-10-09T00:00:56.381Z,9.55
2017-10-09T00:01:00.594Z,9.55
2017-10-09T00:01:04.922Z,9.55
2017-10-09T00:01:09.388Z,9.55
2017-10-09T00:01:13.600Z,9.55
2017-10-09T00:01:17.684Z,9.55
2017-10-09T00:01:21.771Z,9.56
2017-10-09T00:01:26.232Z,9.56
2017-10-09T00:01:30.692Z,9.56
2017-10-09T00:01:34.898Z,9.55
2017-10-09T00:01:38.989Z,9.55
2017-10-09T00:01:42.828Z,9.55
2017-10-09T00:01:46.787Z,9.56
2017-10-09T00:01:50.995Z,9.55
2017-10-09T00:01:55.078Z,9.56
2017-10-09T00:01:59.291Z,9.56
2017-10-09T00:02:03.252Z,9.56
2017-10-09T00:02:07.463Z,9.56
2017-10-09T00:02:11.672Z,9.55
2017-10-09T00:02:16.002Z,9.56
2017-10-09T00:02:20.096Z,9.56
2017-10-09T00:02:24.432Z,9.55
2017-10-09T00:02:28.765Z,9.56
2017-10-09T00:02:32.853Z,9.56
2017-10-09T00:02:37.319Z,9.56
2017-10-09T00:02:41.402Z,9.56
2017-10-09T00:02:45.614Z,9.56
2017-10-09T00:02:49.948Z,9.56
2017-10-09T00:02:54.153Z,9.56
2017-10-09T00:02:58.361Z,9.56
2017-10-09T00:03:02.624Z,9.56
2017-10-09T00:03:06.711Z,9.57
2017-10-09T00:03:10.923Z,9.56
2017-10-09T00:03:15.004Z,9.57
2017-10-09T00:03:19.213Z,9.57
2017-10-09T00:03:23.423Z,9.56
2017-10-09T00:03:27.758Z,9.57
2017-10-09T00:03:31.716Z,9.56
2017-10-09T00:03:35.671Z,9.57
2017-10-09T00:03:39.915Z,9.57
2017-10-09T00:03:43.874Z,9.57
2017-10-09T00:03:47.842Z,9.56
2017-10-09T00:03:51.925Z,9.57
2017-10-09T00:03:56.004Z,9.57
2017-10-09T00:04:00.214Z,9.57
2017-10-09T00:04:04.426Z,9.57
2017-10-09T00:04:08.636Z,9.57
2017-10-09T00:04:12.845Z,9.57
2017-10-09T00:04:16.934Z,9.57
2017-10-09T00:04:21.054Z,9.56
2017-10-09T00:04:25.266Z,9.57
2017-10-09T00:04:29.595Z,9.58
2017-10-09T00:04:33.680Z,9.57
2017-10-09T00:04:37.790Z,9.56
2017-10-09T00:04:41.877Z,9.57
2017-10-09T00:04:46.220Z,9.57
2017-10-09T00:04:50.430Z,9.57
2017-10-09T00:04:54.514Z,9.57
2017-10-09T00:04:58.606Z,9.56
2017-10-09T00:05:02.569Z,9.56
2017-10-09T00:05:06.785Z,9.56
2017-10-09T00:05:11.118Z,9.57
2017-10-09T00:05:15.456Z,9.56
2017-10-09T00:05:19.798Z,9.56
2017-10-09T00:05:24.011Z,9.57
2017-10-09T00:05:28.221Z,9.56
2017-10-09T00:05:32.308Z,9.56
2017-10-09T00:05:36.397Z,9.57
2017-10-09T00:05:40.609Z,9.57
2017-10-09T00:05:44.815Z,9.57
2017-10-09T00:05:49.153Z,9.57
2017-10-09T00:05:53.129Z,9.56
2017-10-09T00:05:57.468Z,9.57
2017-10-09T00:06:01.429Z,9.56
2017-10-09T00:06:05.438Z,9.56
2017-10-09T00:06:09.656Z,9.57
2017-10-09T00:06:13.739Z,9.57
2017-10-09T00:06:17.947Z,9.56
2017-10-09T00:06:22.037Z,9.56
2017-10-09T00:06:26.127Z,9.57
2017-10-09T00:06:30.211Z,9.57
2017-10-09T00:06:34.169Z,9.57
2017-10-09T00:06:38.253Z,9.55
2017-10-09T00:06:42.470Z,9.55
2017-10-09T00:06:46.933Z,9.56
2017-10-09T00:07:16.817Z,9.56
2017-10-09T00:07:21.025Z,9.55
2017-10-09T00:07:25.228Z,9.56
2017-10-09T00:07:29.185Z,9.55
2017-10-09T00:07:33.677Z,9.56
2017-10-09T00:07:37.636Z,9.55
2017-10-09T00:07:41.717Z,9.55
2017-10-09T00:07:45.928Z,9.54
2017-10-09T00:07:50.141Z,9.55
2017-10-09T00:07:54.222Z,9.55
2017-10-09T00:07:58.305Z,9.55
2017-10-09T00:08:02.619Z,9.55
2017-10-09T00:08:06.828Z,9.55
2017-10-09T00:08:10.792Z,9.54
2017-10-09T00:08:14.877Z,9.54
2017-10-09T00:08:18.834Z,9.55
2017-10-09T00:08:23.166Z,9.55
2017-10-09T00:08:27.508Z,9.55
2017-10-09T00:08:31.472Z,9.54
2017-10-09T00:08:35.428Z,9.55
2017-10-09T00:08:39.638Z,9.55
2017-10-09T00:08:43.600Z,9.55
2017-10-09T00:08:47.686Z,9.55
2017-10-09T00:08:51.648Z,9.55
2017-10-09T00:08:55.484Z,9.55
2017-10-09T00:08:59.568Z,9.55
2017-10-09T00:09:03.648Z,9.55
2017-10-09T00:09:07.740Z,9.55
2017-10-09T00:09:12.074Z,9.55
2017-10-09T00:09:16.161Z,9.55
2017-10-09T00:09:20.375Z,9.55
2017-10-09T00:09:24.337Z,9.55
2017-10-09T00:09:28.548Z,9.55
2017-10-09T00:09:32.760Z,9.54
2017-10-09T00:09:36.720Z,9.55
2017-10-09T00:09:40.810Z,9.54
2017-10-09T00:09:44.900Z,9.55
2017-10-09T00:09:48.738Z,9.55
2017-10-09T00:09:52.945Z,9.54
2017-10-09T00:09:57.284Z,9.55
2017-10-09T00:10:01.493Z,9.55
2017-10-09T00:10:05.455Z,9.54
2017-10-09T00:10:09.668Z,9.55
2017-10-09T00:10:13.753Z,9.55
2017-10-09T00:10:17.958Z,9.54
2017-10-09T00:10:21.921Z,9.54
2017-10-09T00:10:26.015Z,9.54
2017-10-09T00:10:29.979Z,9.54
2017-10-09T00:10:34.059Z,9.55
2017-10-09T00:10:38.020Z,9.54
2017-10-09T00:10:42.109Z,9.55
2017-10-09T00:10:46.339Z,9.54
2017-10-09T00:10:50.294Z,9.54
2017-10-09T00:10:54.379Z,9.54
2017-10-09T00:10:58.834Z,9.54
2017-10-09T00:11:02.815Z,9.53
2017-10-09T00:11:06.903Z,9.54
2017-10-09T00:11:11.234Z,9.53
2017-10-09T00:11:15.318Z,9.53
2017-10-09T00:11:19.537Z,9.53
2017-10-09T00:11:23.626Z,9.53
2017-10-09T00:11:27.580Z,9.53
2017-10-09T00:11:31.411Z,9.53
2017-10-09T00:11:35.618Z,9.53
2017-10-09T00:11:39.456Z,9.52
2017-10-09T00:11:43.565Z,9.53
2017-10-09T00:11:47.827Z,9.53
2017-10-09T00:11:52.161Z,9.53
2017-10-09T00:11:56.114Z,9.53
2017-10-09T00:12:00.195Z,9.52
2017-10-09T00:12:04.605Z,9.53
2017-10-09T00:12:08.569Z,9.51
2017-10-09T00:12:12.773Z,9.51
2017-10-09T00:12:16.987Z,9.52
2017-10-09T00:12:21.066Z,9.52
2017-10-09T00:12:25.150Z,9.52
2017-10-09T00:12:29.357Z,9.52
2017-10-09T00:12:33.574Z,9.52
2017-10-09T00:12:37.529Z,9.52
2017-10-09T00:12:41.868Z,9.52
2017-10-09T00:12:45.947Z,9.53
2017-10-09T00:12:50.030Z,9.52
2017-10-09T00:12:54.367Z,9.51
2017-10-09T00:12:58.442Z,9.52
2017-10-09T00:13:02.653Z,9.51
2017-10-09T00:13:06.862Z,9.52
2017-10-09T00:13:10.697Z,9.52
2017-10-09T00:13:14.899Z,9.52
2017-10-09T00:13:18.987Z,9.51
2017-10-09T00:13:23.065Z,9.52
2017-10-09T00:13:27.399Z,9.51
2017-10-09T00:13:31.352Z,9.52
2017-10-09T00:13:35.311Z,9.51
2017-10-09T00:13:39.651Z,9.51
2017-10-09T00:13:43.987Z,9.52
2017-10-09T00:13:48.322Z,9.51
2017-10-09T00:13:52.405Z,9.52
2017-10-09T00:13:56.487Z,9.51
2017-10-09T00:14:00.318Z,9.53
2017-10-09T00:14:04.648Z,9.51
2017-10-09T00:14:08.856Z,9.52
2017-10-09T00:14:12.945Z,9.51
2017-10-09T00:14:17.283Z,9.52
2017-10-09T00:14:21.500Z,9.51
2017-10-09T00:14:25.456Z,9.52
2017-10-09T00:14:29.666Z,9.52
2017-10-09T00:14:33.874Z,9.51
2017-10-09T00:14:37.961Z,9.52
2017-10-09T00:14:41.793Z,9.51
2017-10-09T00:14:46.126Z,9.51
2017-10-09T00:14:50.212Z,9.51
2017-10-09T00:14:54.560Z,9.51
2017-10-09T00:14:58.636Z,9.51
2017-10-09T00:15:02.598Z,9.51
2017-10-09T00:15:06.926Z,9.51
2017-10-09T00:15:11.261Z,9.52
2017-10-09T00:15:15.591Z,9.52
2017-10-09T00:15:20.046Z,9.52
2017-10-09T00:15:24.011Z,9.52
2017-10-09T00:15:27.970Z,9.51
2017-10-09T00:15:32.053Z,9.5
2017-10-09T00:15:36.384Z,9.52
2017-10-09T00:15:40.593Z,9.51
2017-10-09T00:15:44.553Z,9.52
2017-10-09T00:15:48.764Z,9.51
2017-10-09T00:15:52.977Z,9.51
2017-10-09T00:15:57.437Z,9.51
2017-10-09T00:16:01.524Z,9.5
2017-10-09T00:16:05.783Z,9.51
2017-10-09T00:16:09.871Z,9.52
2017-10-09T00:16:13.975Z,9.51
2017-10-09T00:16:18.190Z,9.52
2017-10-09T00:16:22.276Z,9.51
2017-10-09T00:16:26.486Z,9.51
2017-10-09T00:16:30.949Z,9.51
2017-10-09T00:16:34.905Z,9.52
2017-10-09T00:16:39.113Z,9.52
2017-10-09T00:16:43.573Z,9.52
2017-10-09T00:16:47.789Z,9.51
2017-10-09T00:16:52.001Z,9.51
2017-10-09T00:16:56.211Z,9.51
2017-10-09T00:17:00.173Z,9.5
2017-10-09T00:17:04.463Z,9.5
2017-10-09T00:17:08.547Z,9.5
2017-10-09T00:17:12.631Z,9.5
2017-10-09T00:17:16.713Z,9.5
2017-10-09T00:17:20.797Z,9.52
2017-10-09T00:17:24.890Z,9.51
2017-10-09T00:17:28.977Z,9.51
2017-10-09T00:17:32.936Z,9.5
2017-10-09T00:17:37.018Z,9.5
2017-10-09T00:17:41.226Z,9.5
2017-10-09T00:17:45.196Z,9.51
2017-10-09T00:17:49.154Z,9.5
2017-10-09T00:17:53.234Z,9.51
2017-10-09T00:17:57.565Z,9.51
2017-10-09T00:18:01.654Z,9.5
2017-10-09T00:18:05.868Z,9.5
2017-10-09T00:18:09.827Z,9.49
2017-10-09T00:18:13.908Z,9.5
2017-10-09T00:18:18.119Z,9.5
2017-10-09T00:18:22.336Z,9.49
2017-10-09T00:18:26.544Z,9.49
2017-10-09T00:18:30.750Z,9.5
2017-10-09T00:18:35.088Z,9.49
2017-10-09T00:18:39.300Z,9.5
2017-10-09T00:18:43.515Z,9.49
2017-10-09T00:18:47.728Z,9.49
2017-10-09T00:18:52.060Z,9.49
2017-10-09T00:18:56.275Z,9.49
2017-10-09T00:19:00.358Z,9.5
2017-10-09T00:19:04.842Z,9.49
2017-10-09T00:19:08.930Z,9.49
2017-10-09T00:19:13.144Z,9.49
2017-10-09T00:19:17.223Z,9.5
2017-10-09T00:19:21.302Z,9.49
2017-10-09T00:19:25.386Z,9.49
2017-10-09T00:19:29.470Z,9.49
2017-10-09T00:19:33.555Z,9.49
2017-10-09T00:19:37.879Z,9.49
2017-10-09T00:19:42.086Z,9.5
2017-10-09T00:19:46.174Z,9.49
2017-10-09T00:19:50.386Z,9.49
2017-10-09T00:19:54.590Z,9.5
2017-10-09T00:19:58.547Z,9.49
2017-10-09T00:20:02.506Z,9.5
2017-10-09T00:20:06.972Z,9.5
2017-10-09T00:20:10.928Z,9.49
2017-10-09T00:20:15.381Z,9.5
2017-10-09T00:20:19.344Z,9.5
2017-10-09T00:20:23.554Z,9.49
2017-10-09T00:20:27.779Z,9.48
2017-10-09T00:20:31.969Z,9.5
2017-10-09T00:20:36.056Z,9.49
2017-10-09T00:20:40.316Z,9.49
2017-10-09T00:20:44.526Z,9.49
2017-10-09T00:20:48.611Z,9.49
2017-10-09T00:20:52.943Z,9.49
2017-10-09T00:20:57.035Z,9.49
2017-10-09T00:21:01.124Z,9.49
2017-10-09T00:21:05.408Z,9.48
2017-10-09T00:21:09.369Z,9.48
2017-10-09T00:21:13.456Z,9.48
2017-10-09T00:21:17.794Z,9.49
2017-10-09T00:21:21.754Z,9.48
2017-10-09T00:21:25.590Z,9.48
2017-10-09T00:21:29.920Z,9.49
2017-10-09T00:21:34.263Z,9.49
2017-10-09T00:21:38.224Z,9.49
2017-10-09T00:21:42.559Z,9.49
2017-10-09T00:21:46.770Z,9.48
2017-10-09T00:21:50.734Z,9.47
2017-10-09T00:21:54.821Z,9.48
2017-10-09T00:21:59.158Z,9.48
2017-10-09T00:22:03.617Z,9.47
2017-10-09T00:22:07.572Z,9.48
2017-10-09T00:22:11.789Z,9.46
2017-10-09T00:22:16.242Z,9.47
2017-10-09T00:22:20.198Z,9.47
2017-10-09T00:22:24.280Z,9.47
2017-10-09T00:22:28.612Z,9.47
2017-10-09T00:22:32.692Z,9.47
2017-10-09T00:22:36.905Z,9.46
2017-10-09T00:22:41.113Z,9.47
2017-10-09T00:22:45.329Z,9.47
2017-10-09T00:22:49.670Z,9.47
2017-10-09T00:22:53.884Z,9.46
2017-10-09T00:22:57.843Z,9.46
2017-10-09T00:23:01.905Z,9.46
2017-10-09T00:23:05.872Z,9.46
2017-10-09T00:23:09.952Z,9.46
2017-10-09T00:23:14.039Z,9.46
2017-10-09T00:23:18.247Z,9.46
2017-10-09T00:23:22.576Z,9.46
2017-10-09T00:23:26.664Z,9.46
2017-10-09T00:23:30.898Z,9.45
2017-10-09T00:23:34.981Z,9.46
2017-10-09T00:23:38.816Z,9.46
2017-10-09T00:23:43.152Z,9.45
2017-10-09T00:23:47.109Z,9.46
2017-10-09T00:23:51.069Z,9.46
2017-10-09T00:23:55.158Z,9.45
2017-10-09T00:23:59.119Z,9.45
2017-10-09T00:24:03.355Z,9.45
2017-10-09T00:24:07.321Z,9.45
2017-10-09T00:24:11.533Z,9.45
2017-10-09T00:24:15.615Z,9.45
2017-10-09T00:24:19.578Z,9.44
2017-10-09T00:24:23.789Z,9.45
2017-10-09T00:24:28.126Z,9.45
2017-10-09T00:24:32.204Z,9.45
2017-10-09T00:24:36.295Z,9.44
2017-10-09T00:24:40.378Z,9.45
2017-10-09T00:24:44.584Z,9.44
2017-10-09T00:24:48.543Z,9.44
2017-10-09T00:24:52.877Z,9.44
2017-10-09T00:24:56.964Z,9.44
2017-10-09T00:25:00.804Z,9.44
2017-10-09T00:25:05.164Z,9.44
2017-10-09T00:25:09.374Z,9.44
2017-10-09T00:25:13.463Z,9.44
2017-10-09T00:25:17.796Z,9.44
2017-10-09T00:25:21.761Z,9.44
2017-10-09T00:25:25.852Z,9.44
2017-10-09T00:25:29.940Z,9.44
2017-10-09T00:25:34.152Z,9.43
2017-10-09T00:25:38.362Z,9.43
2017-10-09T00:25:42.320Z,9.43
2017-10-09T00:25:46.793Z,9.43
2017-10-09T00:25:51.250Z,9.44
2017-10-09T00:25:55.206Z,9.43
2017-10-09T00:25:59.412Z,9.43
2017-10-09T00:26:03.495Z,9.43
2017-10-09T00:26:07.829Z,9.43
2017-10-09T00:26:11.917Z,9.42
2017-10-09T00:26:16.002Z,9.42
2017-10-09T00:26:19.958Z,9.43
2017-10-09T00:26:24.039Z,9.42
2017-10-09T00:26:28.367Z,9.43
2017-10-09T00:26:32.456Z,9.43
2017-10-09T00:26:36.561Z,9.42
2017-10-09T00:26:40.901Z,9.43
2017-10-09T00:26:45.110Z,9.41
2017-10-09T00:26:49.321Z,9.43
2017-10-09T00:26:53.781Z,9.42
2017-10-09T00:26:57.866Z,9.43
2017-10-09T00:27:01.947Z,9.43
2017-10-09T00:27:06.156Z,9.43
2017-10-09T00:27:10.496Z,9.42
2017-10-09T00:27:14.990Z,9.42
2017-10-09T00:27:19.209Z,9.41
2017-10-09T00:27:23.288Z,9.42
2017-10-09T00:27:27.373Z,9.41
2017-10-09T00:27:31.588Z,9.41
2017-10-09T00:27:35.549Z,9.42
2017-10-09T00:27:39.884Z,9.41
2017-10-09T00:27:44.222Z,9.42
2017-10-09T00:27:48.184Z,9.41
2017-10-09T00:27:52.399Z,9.42
2017-10-09T00:27:56.358Z,9.41
2017-10-09T00:28:00.483Z,9.41
2017-10-09T00:28:04.690Z,9.42
2017-10-09T00:28:09.026Z,9.42
2017-10-09T00:28:13.360Z,9.41
2017-10-09T00:28:17.446Z,9.41
2017-10-09T00:28:21.670Z,9.41
2017-10-09T00:28:25.879Z,9.41
2017-10-09T00:28:29.959Z,9.4
2017-10-09T00:28:34.164Z,9.4
2017-10-09T00:28:38.128Z,9.4
2017-10-09T00:28:42.087Z,9.41
2017-10-09T00:28:46.426Z,9.4
2017-10-09T00:28:50.510Z,9.4
2017-10-09T00:28:54.593Z,9.41
2017-10-09T00:28:58.677Z,9.41
2017-10-09T00:29:02.959Z,9.4
2017-10-09T00:29:07.413Z,9.4
2017-10-09T00:29:11.743Z,9.39
2017-10-09T00:29:16.081Z,9.4
2017-10-09T00:29:20.290Z,9.4
2017-10-09T00:29:24.496Z,9.4
2017-10-09T00:29:28.459Z,9.4
2017-10-09T00:29:32.546Z,9.4
2017-10-09T00:29:36.753Z,9.4
2017-10-09T00:29:40.837Z,9.41
2017-10-09T00:29:45.047Z,9.4
2017-10-09T00:29:49.251Z,9.4
2017-10-09T00:29:53.475Z,9.39
2017-10-09T00:29:57.310Z,9.39
2017-10-09T00:30:01.390Z,9.39
2017-10-09T00:30:05.725Z,9.39
2017-10-09T00:30:10.198Z,9.39
2017-10-09T00:30:14.156Z,9.39
2017-10-09T00:30:18.491Z,9.39
2017-10-09T00:30:22.578Z,9.4
2017-10-09T00:30:26.540Z,9.4
2017-10-09T00:30:30.879Z,9.39
2017-10-09T00:30:35.090Z,9.39
2017-10-09T00:30:39.180Z,9.4
2017-10-09T00:30:43.138Z,9.39
2017-10-09T00:30:47.103Z,9.39
2017-10-09T00:30:51.195Z,9.4
2017-10-09T00:30:55.276Z,9.39
2017-10-09T00:30:59.234Z,9.39
2017-10-09T00:31:03.193Z,9.38
2017-10-09T00:31:07.027Z,9.38
2017-10-09T00:31:11.111Z,9.39
2017-10-09T00:31:15.073Z,9.39
2017-10-09T00:31:19.283Z,9.39
2017-10-09T00:31:23.623Z,9.39
2017-10-09T00:31:27.707Z,9.39
2017-10-09T00:31:31.787Z,9.38
2017-10-09T00:31:35.993Z,9.39
2017-10-09T00:31:40.080Z,9.38
2017-10-09T00:31:44.167Z,9.39
2017-10-09T00:31:48.130Z,9.39
2017-10-09T00:31:52.344Z,9.39
2017-10-09T00:31:56.310Z,9.38
2017-10-09T00:32:00.393Z,9.38
2017-10-09T00:32:04.859Z,9.39
2017-10-09T00:32:08.950Z,9.38
2017-10-09T00:32:13.156Z,9.38
2017-10-09T00:32:17.115Z,9.38
2017-10-09T00:32:21.326Z,9.38
2017-10-09T00:32:25.291Z,9.39
2017-10-09T00:32:29.497Z,9.38
2017-10-09T00:32:33.452Z,9.38
2017-10-09T00:32:37.409Z,9.37
2017-10-09T00:32:41.496Z,9.39
2017-10-09T00:32:45.576Z,9.38
2017-10-09T00:32:49.663Z,9.38
2017-10-09T00:32:53.749Z,9.39
2017-10-09T00:32:57.961Z,9.38
2017-10-09T00:33:01.917Z,9.39
2017-10-09T00:33:06.004Z,9.39
2017-10-09T00:33:10.224Z,9.38
2017-10-09T00:33:14.554Z,9.4
2017-10-09T00:33:18.510Z,9.38
2017-10-09T00:33:22.593Z,9.39
2017-10-09T00:33:26.556Z,9.39
2017-10-09T00:33:30.764Z,9.39
2017-10-09T00:33:34.975Z,9.37
2017-10-09T00:33:39.184Z,9.38
2017-10-09T00:33:43.265Z,9.39
2017-10-09T00:33:47.350Z,9.38
2017-10-09T00:33:51.439Z,9.39
2017-10-09T00:33:55.401Z,9.38
2017-10-09T00:33:59.367Z,9.39
2017-10-09T00:34:03.348Z,9.38
2017-10-09T00:34:07.441Z,9.39
2017-10-09T00:34:11.275Z,9.38
2017-10-09T00:34:15.742Z,9.38
2017-10-09T00:34:20.077Z,9.39
2017-10-09T00:34:24.036Z,9.38
2017-10-09T00:34:28.123Z,9.38
2017-10-09T00:34:32.454Z,9.38
2017-10-09T00:34:36.542Z,9.38
2017-10-09T00:34:40.750Z,9.38
2017-10-09T00:34:44.835Z,9.38
2017-10-09T00:34:49.170Z,9.38
2017-10-09T00:34:53.258Z,9.38
2017-10-09T00:34:57.220Z,9.37
2017-10-09T00:35:01.307Z,9.37
2017-10-09T00:35:05.869Z,9.38
2017-10-09T00:35:10.078Z,9.38
2017-10-09T00:35:13.916Z,9.38
2017-10-09T00:35:18.245Z,9.38
2017-10-09T00:35:22.580Z,9.37
2017-10-09T00:35:26.788Z,9.38
2017-10-09T00:35:31.127Z,9.38
2017-10-09T00:35:35.093Z,9.37
2017-10-09T00:35:39.299Z,9.38
2017-10-09T00:35:43.257Z,9.38
2017-10-09T00:35:47.467Z,9.37
2017-10-09T00:35:51.680Z,9.37
2017-10-09T00:35:55.891Z,9.38
2017-10-09T00:36:00.095Z,9.38
2017-10-09T00:36:04.177Z,9.38
2017-10-09T00:36:08.265Z,9.37
2017-10-09T00:36:12.355Z,9.38
2017-10-09T00:36:16.559Z,9.38
2017-10-09T00:36:20.769Z,9.38
2017-10-09T00:36:24.851Z,9.38
2017-10-09T00:36:28.931Z,9.39
2017-10-09T00:36:32.890Z,9.38
2017-10-09T00:36:37.094Z,9.38
2017-10-09T00:36:41.305Z,9.38
2017-10-09T00:36:45.514Z,9.38
2017-10-09T00:36:49.845Z,9.37
2017-10-09T00:36:54.056Z,9.38
2017-10-09T00:36:58.260Z,9.38
2017-10-09T00:37:02.664Z,9.38
2017-10-09T00:37:07.001Z,9.38
2017-10-09T00:37:11.088Z,9.37
2017-10-09T00:37:15.421Z,9.37
2017-10-09T00:37:19.253Z,9.37
2017-10-09T00:37:23.337Z,9.38
2017-10-09T00:37:27.297Z,9.38
2017-10-09T00:37:31.626Z,9.38
2017-10-09T00:37:35.459Z,9.37
2017-10-09T00:37:39.665Z,9.38
2017-10-09T00:37:43.998Z,9.38
2017-10-09T00:37:48.088Z,9.38
2017-10-09T00:37:52.298Z,9.38
2017-10-09T00:37:56.135Z,9.38
2017-10-09T00:38:00.094Z,9.37
2017-10-09T00:38:04.300Z,9.38
2017-10-09T00:38:08.264Z,9.37
2017-10-09T00:38:12.352Z,9.38
2017-10-09T00:38:16.564Z,9.39
2017-10-09T00:38:20.768Z,9.37
2017-10-09T00:38:24.850Z,9.38
2017-10-09T00:38:28.938Z,9.38
2017-10-09T00:38:33.024Z,9.38
2017-10-09T00:38:37.105Z,9.37
2017-10-09T00:38:41.193Z,9.37
2017-10-09T00:38:45.283Z,9.38
2017-10-09T00:38:49.500Z,9.37
2017-10-09T00:38:53.460Z,9.37
2017-10-09T00:38:57.792Z,9.38
2017-10-09T00:39:01.873Z,9.37
2017-10-09T00:39:06.213Z,9.38
2017-10-09T00:39:10.299Z,9.37
2017-10-09T00:39:14.505Z,9.38
2017-10-09T00:39:18.466Z,9.38
2017-10-09T00:39:22.798Z,9.38
2017-10-09T00:39:26.762Z,9.37
2017-10-09T00:39:30.971Z,9.37
2017-10-09T00:39:35.313Z,9.38
2017-10-09T00:39:39.528Z,9.38
2017-10-09T00:39:43.737Z,9.38
2017-10-09T00:39:47.945Z,9.38
2017-10-09T00:39:52.025Z,9.37
2017-10-09T00:39:56.237Z,9.38
2017-10-09T00:40:00.319Z,9.37
2017-10-09T00:40:04.439Z,9.38
2017-10-09T00:40:08.518Z,9.37
2017-10-09T00:40:12.480Z,9.37
2017-10-09T00:40:16.564Z,9.38
2017-10-09T00:40:20.776Z,9.37
2017-10-09T00:40:25.109Z,9.37
2017-10-09T00:40:29.072Z,9.38
2017-10-09T00:40:33.155Z,9.38
2017-10-09T00:40:37.243Z,9.38
2017-10-09T00:40:41.205Z,9.38
2017-10-09T00:40:45.547Z,9.37
2017-10-09T00:40:49.753Z,9.38
2017-10-09T00:40:53.962Z,9.37
2017-10-09T00:40:58.173Z,9.37
2017-10-09T00:41:02.260Z,9.38
2017-10-09T00:41:06.472Z,9.38
2017-10-09T00:41:10.552Z,9.38
2017-10-09T00:41:14.637Z,9.38
2017-10-09T00:41:18.465Z,9.38
2017-10-09T00:41:22.555Z,9.38
2017-10-09T00:41:26.632Z,9.38
2017-10-09T00:41:30.964Z,9.39
2017-10-09T00:41:35.298Z,9.37
2017-10-09T00:41:39.510Z,9.38
2017-10-09T00:41:43.470Z,9.38
2017-10-09T00:41:47.548Z,9.38
2017-10-09T00:41:51.756Z,9.38
2017-10-09T00:41:56.217Z,9.38
2017-10-09T00:42:00.173Z,9.38
2017-10-09T00:42:04.389Z,9.37
2017-10-09T00:42:08.474Z,9.37
2017-10-09T00:42:12.559Z,9.38
2017-10-09T00:42:16.772Z,9.38
2017-10-09T00:42:20.981Z,9.39
2017-10-09T00:42:25.065Z,9.39
2017-10-09T00:42:29.270Z,9.39
2017-10-09T00:42:33.359Z,9.39
2017-10-09T00:42:37.564Z,9.39
2017-10-09T00:42:41.775Z,9.39
2017-10-09T00:42:45.861Z,9.39
2017-10-09T00:42:49.824Z,9.39
2017-10-09T00:42:53.911Z,9.39
2017-10-09T00:42:57.990Z,9.39
2017-10-09T00:43:01.947Z,9.38
2017-10-09T00:43:05.907Z,9.39
2017-10-09T00:43:09.983Z,9.38
2017-10-09T00:43:14.068Z,9.39
2017-10-09T00:43:18.279Z,9.39
2017-10-09T00:43:22.358Z,9.38
2017-10-09T00:43:26.569Z,9.38
2017-10-09T00:43:30.662Z,9.38
2017-10-09T00:43:34.619Z,9.39
2017-10-09T00:43:38.703Z,9.38
2017-10-09T00:43:42.782Z,9.39
2017-10-09T00:43:46.995Z,9.39
2017-10-09T00:43:50.825Z,9.39
2017-10-09T00:43:54.904Z,9.39
2017-10-09T00:43:58.983Z,9.38
2017-10-09T00:44:03.077Z,9.39
2017-10-09T00:44:07.036Z,9.38
2017-10-09T00:44:11.119Z,9.39
2017-10-09T00:44:15.454Z,9.39
2017-10-09T00:44:19.664Z,9.39
2017-10-09T00:44:23.998Z,9.39
2017-10-09T00:44:28.209Z,9.38
2017-10-09T00:44:32.416Z,9.39
2017-10-09T00:44:36.755Z,9.39
2017-10-09T00:44:40.962Z,9.39
2017-10-09T00:44:45.298Z,9.39
2017-10-09T00:44:49.757Z,9.39
2017-10-09T00:44:54.095Z,9.38
2017-10-09T00:44:58.305Z,9.39
2017-10-09T00:45:02.466Z,9.39
2017-10-09T00:45:06.688Z,9.39
2017-10-09T00:45:10.759Z,9.39
2017-10-09T00:45:14.859Z,9.39
2017-10-09T00:45:19.189Z,9.39
2017-10-09T00:45:23.274Z,9.39
2017-10-09T00:45:27.483Z,9.39
2017-10-09T00:45:31.695Z,9.39
2017-10-09T00:45:35.910Z,9.39
2017-10-09T00:45:39.872Z,9.4
2017-10-09T00:45:44.083Z,9.39
2017-10-09T00:45:48.045Z,9.39
2017-10-09T00:45:52.131Z,9.4
2017-10-09T00:45:56.339Z,9.39
2017-10-09T00:46:00.177Z,9.4
2017-10-09T00:46:04.257Z,9.4
2017-10-09T00:46:08.335Z,9.4
2017-10-09T00:46:12.541Z,9.39
2017-10-09T00:46:16.759Z,9.4
2017-10-09T00:46:20.840Z,9.4
2017-10-09T00:46:24.792Z,9.4
2017-10-09T00:46:29.003Z,9.4
2017-10-09T00:46:33.086Z,9.41
2017-10-09T00:46:37.332Z,9.41
2017-10-09T00:46:41.380Z,9.4
2017-10-09T00:46:45.342Z,9.4
2017-10-09T00:46:49.178Z,9.41
2017-10-09T00:46:53.264Z,9.41
2017-10-09T00:46:57.224Z,9.39
2017-10-09T00:47:01.060Z,9.4
2017-10-09T00:47:05.569Z,9.4
2017-10-09T00:47:09.527Z,9.4
2017-10-09T00:47:13.614Z,9.4
2017-10-09T00:47:17.702Z,9.41
2017-10-09T00:47:21.664Z,9.41
2017-10-09T00:47:25.624Z,9.41
2017-10-09T00:47:29.712Z,9.4
2017-10-09T00:47:33.799Z,9.41
2017-10-09T00:47:38.270Z,9.41
2017-10-09T00:47:42.726Z,9.42
2017-10-09T00:47:46.934Z,9.42
2017-10-09T00:47:50.771Z,9.42
2017-10-09T00:47:54.979Z,9.41
2017-10-09T00:47:59.319Z,9.4
2017-10-09T00:48:03.405Z,9.41
2017-10-09T00:48:07.607Z,9.41
2017-10-09T00:48:11.694Z,9.41
2017-10-09T00:48:15.653Z,9.4
2017-10-09T00:48:19.497Z,9.41
2017-10-09T00:48:23.835Z,9.4
2017-10-09T00:48:28.041Z,9.41
2017-10-09T00:48:32.129Z,9.42
2017-10-09T00:48:36.216Z,9.41
2017-10-09T00:48:40.441Z,9.41
2017-10-09T00:48:44.826Z,9.41
2017-10-09T00:48:49.041Z,9.41
2017-10-09T00:48:53.367Z,9.41
2017-10-09T00:48:57.459Z,9.41
2017-10-09T00:49:01.669Z,9.41
2017-10-09T00:49:05.880Z,9.42
2017-10-09T00:49:09.842Z,9.41
2017-10-09T00:49:13.797Z,9.41
2017-10-09T00:49:18.004Z,9.42
2017-10-09T00:49:22.213Z,9.41
2017-10-09T00:49:26.550Z,9.42
2017-10-09T00:49:30.512Z,9.4
2017-10-09T00:49:34.838Z,9.42
2017-10-09T00:49:38.923Z,9.42
2017-10-09T00:49:42.755Z,9.42
2017-10-09T00:49:46.715Z,9.43
2017-10-09T00:49:50.931Z,9.41
2017-10-09T00:49:55.140Z,9.43
2017-10-09T00:49:59.597Z,9.41
2017-10-09T00:50:04.021Z,9.42
2017-10-09T00:50:08.257Z,9.41
2017-10-09T00:50:12.221Z,9.42
2017-10-09T00:50:16.429Z,9.42
2017-10-09T00:50:20.767Z,9.42
2017-10-09T00:50:25.102Z,9.42
2017-10-09T00:50:29.190Z,9.43
2017-10-09T00:50:33.273Z,9.43
2017-10-09T00:50:37.480Z,9.43
2017-10-09T00:50:41.562Z,9.42
2017-10-09T00:50:45.555Z,9.42
2017-10-09T00:50:49.527Z,9.43
2017-10-09T00:50:53.881Z,9.43
2017-10-09T00:50:58.087Z,9.43
2017-10-09T00:51:02.183Z,9.43
2017-10-09T00:51:06.315Z,9.42
2017-10-09T00:51:10.274Z,9.42
2017-10-09T00:51:14.478Z,9.42
2017-10-09T00:51:18.560Z,9.43
2017-10-09T00:51:22.532Z,9.41
2017-10-09T00:51:26.744Z,9.43
2017-10-09T00:51:30.829Z,9.42
2017-10-09T00:51:34.791Z,9.43
2017-10-09T00:51:38.750Z,9.43
2017-10-09T00:51:42.712Z,9.43
2017-10-09T00:51:46.795Z,9.42
2017-10-09T00:51:51.132Z,9.43
2017-10-09T00:51:55.220Z,9.42
2017-10-09T00:51:59.563Z,9.42
2017-10-09T00:52:03.950Z,9.41
2017-10-09T00:52:08.154Z,9.42
2017-10-09T00:52:12.365Z,9.42
2017-10-09T00:52:16.575Z,9.43
2017-10-09T00:52:20.668Z,9.43
2017-10-09T00:52:24.876Z,9.42
2017-10-09T00:52:29.207Z,9.43
2017-10-09T00:52:33.292Z,9.42
2017-10-09T00:52:37.253Z,9.43
2017-10-09T00:52:41.218Z,9.41
2017-10-09T00:52:45.426Z,9.43
2017-10-09T00:52:49.516Z,9.43
2017-10-09T00:52:53.475Z,9.43
2017-10-09T00:52:57.810Z,9.42
2017-10-09T00:53:01.868Z,9.42
2017-10-09T00:53:05.952Z,9.43
2017-10-09T00:53:10.042Z,9.42
2017-10-09T00:53:14.008Z,9.43
2017-10-09T00:53:18.218Z,9.42
2017-10-09T00:53:22.306Z,9.43
2017-10-09T00:53:26.385Z,9.43
2017-10-09T00:53:30.476Z,9.43
2017-10-09T00:53:34.438Z,9.43
2017-10-09T00:53:38.647Z,9.43
2017-10-09T00:53:42.485Z,9.43
2017-10-09T00:53:46.566Z,9.42
2017-10-09T00:53:50.530Z,9.42
2017-10-09T00:53:54.614Z,9.42
2017-10-09T00:53:58.578Z,9.43
2017-10-09T00:54:03.034Z,9.43
2017-10-09T00:54:07.495Z,9.43
2017-10-09T00:54:11.833Z,9.42
2017-10-09T00:54:15.918Z,9.43
2017-10-09T00:54:20.122Z,9.42
2017-10-09T00:54:24.331Z,9.43
2017-10-09T00:54:28.665Z,9.43
2017-10-09T00:54:32.641Z,9.42
2017-10-09T00:54:36.731Z,9.43
2017-10-09T00:54:40.570Z,9.42
2017-10-09T00:54:44.527Z,9.42
2017-10-09T00:54:48.738Z,9.43
2017-10-09T00:54:53.075Z,9.43
2017-10-09T00:54:57.030Z,9.42
2017-10-09T00:55:01.119Z,9.42
2017-10-09T00:55:05.457Z,9.43
2017-10-09T00:55:09.791Z,9.42
2017-10-09T00:55:13.999Z,9.42
2017-10-09T00:55:18.205Z,9.43
2017-10-09T00:55:22.285Z,9.43
2017-10-09T00:55:26.246Z,9.43
2017-10-09T00:55:30.334Z,9.43
2017-10-09T00:55:34.544Z,9.43
2017-10-09T00:55:38.505Z,9.43
2017-10-09T00:55:42.590Z,9.42